Time;durP1;ratioP1;P1;durP2;ratioP2;P2;SDS_P1;SDS_P2;PMS_P1;PMS_P2;Temp;Humidity;BMP_temperature;BMP_pressure;BME280_temperature;BME280_humidity;BME280_pressure;Samples;Min_cycle;Max_cycle;Signal;HPM_P1;HPM_P2
2022/03/09 00:00:00;;;;;;;22.50;9.10;;;2.50;99.90;;;;;;5013438;28;20125;-80
2022/03/09 00:02:26;;;;;;;17.83;8.98;;;2.60;99.90;;;;;;5013303;28;20141;-80
2022/03/09 00:04:51;;;;;;;52.50;18.10;;;2.60;99.90;;;;;;5013320;28;20493;-80
2022/03/09 00:07:17;;;;;;;64.55;20.27;;;2.50;99.90;;;;;;5013157;28;20053;-80
2022/03/09 00:09:43;;;;;;;58.03;17.67;;;2.60;99.90;;;;;;5013357;28;20077;-80
2022/03/09 00:12:09;;;;;;;50.85;15.68;;;2.50;99.90;;;;;;5013177;28;20442;-80
2022/03/09 00:14:34;;;;;;;124.53;34.92;;;2.60;99.90;;;;;;5013437;28;20049;-80
2022/03/09 00:17:00;;;;;;;30.00;10.73;;;2.60;99.90;;;;;;5013127;28;20046;-80
2022/03/09 00:19:25;;;;;;;17.40;7.13;;;2.60;99.90;;;;;;5013141;28;20045;-80
2022/03/09 00:21:51;;;;;;;35.50;12.48;;;2.50;99.90;;;;;;5014141;28;20046;-80
2022/03/09 00:24:19;;;;;;;31.88;12.02;;;2.50;99.90;;;;;;5012989;28;20053;-80
2022/03/09 00:26:45;;;;;;;21.23;10.25;;;2.50;99.90;;;;;;5014862;28;20061;-80
2022/03/09 00:29:10;;;;;;;13.20;6.45;;;2.50;99.90;;;;;;5016436;28;20053;-80
2022/03/09 00:31:36;;;;;;;15.25;6.35;;;2.50;99.90;;;;;;5016232;28;20493;-80
2022/03/09 00:34:02;;;;;;;8.90;5.00;;;2.50;99.90;;;;;;5016040;28;20499;-80
2022/03/09 00:36:27;;;;;;;9.02;5.35;;;2.40;99.90;;;;;;5015922;28;20046;-80
2022/03/09 00:38:53;;;;;;;9.60;5.60;;;2.40;99.90;;;;;;5016061;28;20062;-80
2022/03/09 00:41:19;;;;;;;9.45;5.38;;;2.40;99.90;;;;;;5016349;28;20049;-80
2022/03/09 00:43:44;;;;;;;10.48;4.90;;;2.40;99.90;;;;;;5016272;28;20493;-80
2022/03/09 00:46:10;;;;;;;11.40;5.75;;;2.40;99.90;;;;;;5016301;28;20048;-80
2022/03/09 00:48:36;;;;;;;16.05;6.55;;;2.30;99.90;;;;;;5016157;28;20045;-80
2022/03/09 00:51:01;;;;;;;12.43;6.75;;;2.30;99.90;;;;;;5015864;28;20072;-80
2022/03/09 00:53:27;;;;;;;15.63;7.00;;;2.30;99.90;;;;;;5015882;28;20472;-80
2022/03/09 00:55:53;;;;;;;14.77;7.55;;;2.30;99.90;;;;;;5015807;28;20049;-80
2022/03/09 00:58:18;;;;;;;13.05;7.75;;;2.30;99.90;;;;;;5015864;28;20096;-80
2022/03/09 01:00:44;;;;;;;14.52;7.25;;;2.20;99.90;;;;;;5015916;28;20149;-80
2022/03/09 01:03:09;;;;;;;15.30;6.43;;;2.20;99.90;;;;;;5015996;28;20048;-80
2022/03/09 01:05:35;;;;;;;10.13;6.57;;;2.20;99.90;;;;;;5015716;28;20449;-80
2022/03/09 01:08:01;;;;;;;11.27;6.43;;;2.20;99.90;;;;;;5016528;28;20136;-80
2022/03/09 01:10:26;;;;;;;12.25;6.35;;;2.20;99.90;;;;;;5016094;28;20388;-80
2022/03/09 01:12:52;;;;;;;12.45;5.70;;;2.20;99.90;;;;;;5015731;28;20124;-80
2022/03/09 01:15:18;;;;;;;10.05;5.88;;;2.20;99.90;;;;;;5019677;28;20129;-80
2022/03/09 01:17:44;;;;;;;12.20;5.22;;;2.20;99.90;;;;;;5019735;28;20049;-80
2022/03/09 01:20:10;;;;;;;20.70;6.63;;;2.10;99.90;;;;;;5019803;28;20084;-80
2022/03/09 01:22:37;;;;;;;8.60;5.15;;;2.10;99.90;;;;;;5019582;28;20064;-80
2022/03/09 01:25:03;;;;;;;11.75;6.35;;;2.10;99.90;;;;;;5019774;28;20049;-80
2022/03/09 01:27:29;;;;;;;11.77;5.95;;;2.10;99.90;;;;;;5019283;28;20053;-80
2022/03/09 01:29:55;;;;;;;10.73;6.50;;;2.00;99.90;;;;;;5019815;28;20057;-80
2022/03/09 01:32:21;;;;;;;14.88;5.75;;;2.00;99.90;;;;;;5019641;28;20041;-80
2022/03/09 01:34:48;;;;;;;9.85;5.38;;;2.00;99.90;;;;;;5019430;28;20041;-80
2022/03/09 01:37:14;;;;;;;10.23;5.75;;;2.00;99.90;;;;;;5019281;28;20103;-80
2022/03/09 01:39:39;;;;;;;10.93;5.95;;;2.00;99.90;;;;;;5019303;28;20041;-80
2022/03/09 01:42:05;;;;;;;11.13;5.60;;;2.00;99.90;;;;;;5019517;28;20057;-80
2022/03/09 01:44:31;;;;;;;10.18;5.63;;;2.00;99.90;;;;;;5019223;28;20042;-80
2022/03/09 01:46:57;;;;;;;10.65;6.45;;;2.00;99.90;;;;;;5019502;28;20041;-80
2022/03/09 01:49:23;;;;;;;12.13;6.97;;;2.00;99.90;;;;;;5018909;28;20554;-80
2022/03/09 01:51:52;;;;;;;11.02;6.10;;;1.90;99.90;;;;;;5019057;28;20041;-80
2022/03/09 01:54:18;;;;;;;13.30;6.00;;;2.00;99.90;;;;;;5019011;28;20087;-80
2022/03/09 01:56:44;;;;;;;12.05;6.13;;;1.90;99.90;;;;;;5018944;28;20045;-80
2022/03/09 01:59:12;;;;;;;12.60;6.10;;;1.90;99.90;;;;;;5019273;28;20048;-80
2022/03/09 02:01:38;;;;;;;14.77;7.68;;;1.90;99.90;;;;;;5018754;28;20124;-85
2022/03/09 02:04:04;;;;;;;10.23;6.45;;;1.90;99.90;;;;;;5019070;28;20084;-85
2022/03/09 02:06:32;;;;;;;14.10;6.80;;;1.90;99.90;;;;;;5018822;28;20049;-85
2022/03/09 02:11:43;;;;;;;13.75;6.53;;;1.90;99.90;;;;;;5018751;28;20053;-85
2022/03/09 02:14:36;;;;;;;13.40;6.25;;;1.90;99.90;;;;;;5018743;28;20033;-86
2022/03/09 02:17:07;;;;;;;16.10;6.53;;;1.80;99.90;;;;;;5018520;28;20539;-86
2022/03/09 02:19:33;;;;;;;10.18;6.28;;;1.80;99.90;;;;;;5018909;28;20046;-85
2022/03/09 02:22:05;;;;;;;14.43;6.80;;;1.80;99.90;;;;;;5018531;28;20056;-86
2022/03/09 02:24:31;;;;;;;11.88;6.18;;;1.80;99.90;;;;;;5018874;28;20076;-86
2022/03/09 02:26:57;;;;;;;14.18;6.18;;;1.70;99.90;;;;;;5018123;28;20045;-86
2022/03/09 02:29:22;;;;;;;13.85;6.72;;;1.80;99.90;;;;;;5018324;28;20098;-86
2022/03/09 02:31:48;;;;;;;11.68;6.43;;;1.70;99.90;;;;;;5018378;28;20124;-86
2022/03/09 02:34:14;;;;;;;13.13;7.60;;;1.70;99.90;;;;;;5018605;28;20057;-86
2022/03/09 02:36:39;;;;;;;13.35;6.95;;;1.70;99.90;;;;;;5018301;28;20061;-85
2022/03/09 02:39:05;;;;;;;14.25;7.15;;;1.70;99.90;;;;;;5018554;28;20049;-85
2022/03/09 02:41:33;;;;;;;12.25;6.63;;;1.60;99.90;;;;;;5018079;28;20042;-86
2022/03/09 02:44:00;;;;;;;13.40;6.75;;;1.60;99.90;;;;;;5018373;28;20048;-86
2022/03/09 02:46:26;;;;;;;11.27;6.40;;;1.60;99.90;;;;;;5018271;28;20124;-85
2022/03/09 02:48:53;;;;;;;13.60;6.50;;;1.60;99.90;;;;;;5018336;28;20045;-86
2022/03/09 02:51:18;;;;;;;13.60;7.22;;;1.60;99.90;;;;;;5018251;28;20076;-86
2022/03/09 02:53:44;;;;;;;12.48;6.38;;;1.50;99.90;;;;;;5018014;28;20409;-87
2022/03/09 02:56:10;;;;;;;13.05;6.60;;;1.50;99.90;;;;;;5017794;28;20041;-85
2022/03/09 02:58:35;;;;;;;13.63;6.45;;;1.50;99.90;;;;;;5018087;28;20038;-86
2022/03/09 03:01:01;;;;;;;13.57;7.05;;;1.50;99.90;;;;;;5018105;28;20135;-86
2022/03/09 03:03:27;;;;;;;13.90;7.05;;;1.50;99.90;;;;;;5017744;28;20473;-86
2022/03/09 03:05:52;;;;;;;12.15;5.95;;;1.40;99.90;;;;;;5018075;28;20045;-85
2022/03/09 03:08:18;;;;;;;12.88;6.10;;;1.40;99.90;;;;;;5017537;28;20385;-86
2022/03/09 03:10:44;;;;;;;11.73;6.80;;;1.40;99.90;;;;;;5017580;28;20042;-86
2022/03/09 03:13:09;;;;;;;13.70;7.40;;;1.40;99.90;;;;;;5017413;28;20037;-86
2022/03/09 03:15:35;;;;;;;12.50;6.07;;;1.40;99.90;;;;;;5017657;28;20052;-86
2022/03/09 03:18:01;;;;;;;14.52;6.85;;;1.40;99.90;;;;;;5017832;28;20061;-86
2022/03/09 03:20:27;;;;;;;12.90;6.95;;;1.30;99.90;;;;;;5017756;28;20061;-85
2022/03/09 03:22:53;;;;;;;13.77;7.10;;;1.30;99.90;;;;;;5017239;28;20046;-86
2022/03/09 03:25:18;;;;;;;13.82;7.07;;;1.30;99.90;;;;;;5017206;28;20041;-87
2022/03/09 03:27:44;;;;;;;16.02;7.18;;;1.20;99.90;;;;;;5017337;28;20057;-86
2022/03/09 03:30:10;;;;;;;14.77;7.68;;;1.30;99.90;;;;;;5017462;28;20044;-85
2022/03/09 03:32:36;;;;;;;14.23;7.10;;;1.20;99.90;;;;;;5017057;28;20037;-86
2022/03/09 03:35:03;;;;;;;17.40;7.55;;;1.20;99.90;;;;;;5017090;28;20100;-80
2022/03/09 03:37:28;;;;;;;14.30;7.60;;;1.20;99.90;;;;;;5016370;28;20128;-80
2022/03/09 03:39:54;;;;;;;13.68;7.00;;;1.20;99.90;;;;;;5017127;28;20125;-80
2022/03/09 03:42:20;;;;;;;13.20;7.38;;;1.20;99.90;;;;;;5016885;28;20060;-80
2022/03/09 03:44:46;;;;;;;14.25;7.18;;;1.20;99.90;;;;;;5017206;28;20045;-81
2022/03/09 03:47:11;;;;;;;13.00;7.07;;;1.20;99.90;;;;;;5016791;28;20048;-80
2022/03/09 03:49:37;;;;;;;14.50;7.68;;;1.10;99.90;;;;;;5017197;28;20103;-80
2022/03/09 03:52:03;;;;;;;18.15;7.60;;;1.10;99.90;;;;;;5016666;28;20504;-80
2022/03/09 03:54:29;;;;;;;14.35;8.05;;;1.10;99.90;;;;;;5016715;28;20073;-80
2022/03/09 03:56:54;;;;;;;14.30;7.07;;;1.10;99.90;;;;;;5016754;28;20097;-80
2022/03/09 03:59:20;;;;;;;14.13;7.45;;;1.10;99.90;;;;;;5016992;28;20045;-80
2022/03/09 04:01:46;;;;;;;15.25;7.70;;;1.10;99.90;;;;;;5016750;28;20045;-80
2022/03/09 04:04:11;;;;;;;15.63;7.45;;;1.10;99.90;;;;;;5016736;28;20042;-80
2022/03/09 04:06:37;;;;;;;13.60;7.32;;;1.00;99.90;;;;;;5016477;28;20048;-87
2022/03/09 04:09:03;;;;;;;13.57;7.75;;;1.10;99.90;;;;;;5016430;28;20041;-86
2022/03/09 04:11:28;;;;;;;14.27;7.43;;;1.00;99.90;;;;;;5016423;28;20041;-86
2022/03/09 04:13:54;;;;;;;14.88;8.40;;;1.00;99.90;;;;;;5016554;28;20116;-86
2022/03/09 04:16:19;;;;;;;15.57;8.13;;;1.00;99.90;;;;;;5016536;28;20136;-87
2022/03/09 04:18:45;;;;;;;15.65;7.90;;;1.00;99.90;;;;;;5016510;28;20397;-86
2022/03/09 04:21:11;;;;;;;14.02;7.22;;;1.00;99.90;;;;;;5016701;28;20045;-86
2022/03/09 04:23:36;;;;;;;16.17;7.63;;;1.00;99.90;;;;;;5016396;28;20053;-86
2022/03/09 04:26:06;;;;;;;14.88;7.30;;;1.00;99.90;;;;;;5016284;28;20045;-86
2022/03/09 04:28:32;;;;;;;15.85;8.65;;;1.00;99.90;;;;;;5016136;28;20049;-86
2022/03/09 04:30:58;;;;;;;15.18;6.60;;;1.00;99.90;;;;;;5016267;28;20054;-86
2022/03/09 04:33:24;;;;;;;16.42;7.50;;;1.00;99.90;;;;;;5016192;28;20440;-86
2022/03/09 04:35:50;;;;;;;14.48;7.63;;;0.90;99.90;;;;;;5016078;28;20041;-86
2022/03/09 04:38:16;;;;;;;16.90;7.38;;;0.90;99.90;;;;;;5016210;28;20392;-86
2022/03/09 04:40:41;;;;;;;15.57;8.00;;;0.90;99.90;;;;;;5016299;28;20048;-86
2022/03/09 04:43:07;;;;;;;15.95;8.30;;;0.90;99.90;;;;;;5016312;28;20053;-86
2022/03/09 04:45:33;;;;;;;15.48;7.90;;;0.80;99.90;;;;;;5016439;28;20053;-86
2022/03/09 04:47:58;;;;;;;14.00;8.18;;;0.90;99.90;;;;;;5016292;28;20044;-87
2022/03/09 04:50:24;;;;;;;15.50;8.80;;;0.80;99.90;;;;;;5015845;28;20449;-87
2022/03/09 04:52:50;;;;;;;17.50;8.80;;;0.90;99.90;;;;;;5015829;28;20042;-87
2022/03/09 04:55:16;;;;;;;15.38;8.35;;;0.90;99.90;;;;;;5015737;28;20046;-85
2022/03/09 04:57:41;;;;;;;14.80;7.05;;;0.80;99.90;;;;;;5016214;28;20045;-85
2022/03/09 05:00:08;;;;;;;15.80;8.00;;;0.80;99.90;;;;;;5015989;28;20075;-84
2022/03/09 05:02:34;;;;;;;14.05;7.75;;;0.80;99.90;;;;;;5015930;28;20079;-84
2022/03/09 05:05:00;;;;;;;16.85;8.05;;;0.80;99.90;;;;;;5015679;28;20042;-84
2022/03/09 05:07:25;;;;;;;14.70;8.52;;;0.80;99.90;;;;;;5015693;28;20095;-84
2022/03/09 05:09:51;;;;;;;17.45;8.75;;;0.80;99.90;;;;;;5015741;28;20044;-85
2022/03/09 05:12:17;;;;;;;17.15;8.07;;;0.80;99.90;;;;;;5015811;28;20084;-85
2022/03/09 05:14:42;;;;;;;19.25;9.23;;;0.80;99.90;;;;;;5015768;28;20075;-84
2022/03/09 05:17:08;;;;;;;16.30;8.60;;;0.80;99.90;;;;;;5015781;28;20053;-84
2022/03/09 05:19:34;;;;;;;16.48;8.38;;;0.70;99.90;;;;;;5015560;28;20042;-84
2022/03/09 05:22:00;;;;;;;16.27;8.80;;;0.70;99.90;;;;;;5015544;28;20049;-84
2022/03/09 05:24:25;;;;;;;14.68;8.75;;;0.70;99.90;;;;;;5015567;28;20045;-84
2022/03/09 05:26:51;;;;;;;23.42;9.68;;;0.70;99.90;;;;;;5015430;28;20042;-84
2022/03/09 05:29:17;;;;;;;21.23;11.23;;;0.70;99.90;;;;;;5015695;28;20084;-84
2022/03/09 05:31:44;;;;;;;19.80;11.02;;;0.70;99.90;;;;;;5015596;28;20056;-84
2022/03/09 05:34:11;;;;;;;23.02;12.23;;;0.70;99.90;;;;;;5015361;28;20042;-86
2022/03/09 05:36:36;;;;;;;22.05;10.80;;;0.70;99.90;;;;;;5015261;28;20049;-85
2022/03/09 05:39:03;;;;;;;20.73;10.85;;;0.70;99.90;;;;;;5015629;28;20044;-85
2022/03/09 05:41:29;;;;;;;19.23;9.73;;;0.70;99.90;;;;;;5015490;28;20080;-86
2022/03/09 05:43:55;;;;;;;21.88;10.80;;;0.70;99.90;;;;;;5015492;28;20080;-86
2022/03/09 05:46:21;;;;;;;21.92;10.45;;;0.60;99.90;;;;;;5015627;28;20049;-85
2022/03/09 05:48:46;;;;;;;23.40;11.73;;;0.60;99.90;;;;;;5015284;28;20176;-85
2022/03/09 05:51:12;;;;;;;20.73;10.27;;;0.70;99.90;;;;;;5015447;28;20053;-86
2022/03/09 05:53:39;;;;;;;22.23;11.80;;;0.70;99.90;;;;;;5014905;28;20041;-86
2022/03/09 05:56:05;;;;;;;32.38;14.60;;;0.60;99.90;;;;;;5014383;28;20413;-86
2022/03/09 05:58:31;;;;;;;24.75;12.32;;;0.60;99.90;;;;;;5014392;28;20065;-87
2022/03/09 06:00:56;;;;;;;17.33;9.68;;;0.70;99.90;;;;;;5018087;28;20060;-86
2022/03/09 06:03:22;;;;;;;19.60;11.13;;;0.70;99.90;;;;;;5018348;28;20128;-86
2022/03/09 06:05:48;;;;;;;26.25;14.27;;;0.60;99.90;;;;;;5018940;28;20046;-87
2022/03/09 06:08:13;;;;;;;20.00;11.20;;;0.60;99.90;;;;;;5018796;28;20385;-86
2022/03/09 06:10:39;;;;;;;20.10;10.00;;;0.60;99.90;;;;;;5018640;28;20095;-86
2022/03/09 06:13:05;;;;;;;17.63;9.57;;;0.60;99.90;;;;;;5018464;28;20053;-86
2022/03/09 06:15:30;;;;;;;18.38;9.18;;;0.60;99.90;;;;;;5018359;28;20041;-86
2022/03/09 06:17:56;;;;;;;17.10;8.73;;;0.50;99.90;;;;;;5018369;28;20103;-86
2022/03/09 06:20:23;;;;;;;15.50;9.70;;;0.60;99.90;;;;;;5018637;28;20065;-86
2022/03/09 06:22:49;;;;;;;18.50;9.80;;;0.60;99.90;;;;;;5018358;28;20152;-85
2022/03/09 06:25:15;;;;;;;19.25;9.45;;;0.50;99.90;;;;;;5018482;28;20049;-85
2022/03/09 06:27:50;;;;;;;21.80;10.75;;;0.50;99.90;;;;;;5017962;28;20050;-85
2022/03/09 06:30:17;;;;;;;24.65;15.02;;;0.50;99.90;;;;;;5018444;28;20061;-85
2022/03/09 06:32:44;;;;;;;19.80;12.77;;;0.50;99.90;;;;;;5018202;28;20037;-85
2022/03/09 06:35:11;;;;;;;18.92;12.80;;;0.50;99.90;;;;;;5018299;28;20496;-84
2022/03/09 06:37:37;;;;;;;32.80;17.63;;;0.50;99.90;;;;;;5018135;28;20103;-85
2022/03/09 06:40:04;;;;;;;21.98;12.90;;;0.60;99.90;;;;;;5018067;28;20132;-83
2022/03/09 06:42:30;;;;;;;22.30;9.73;;;0.60;99.90;;;;;;5017981;28;20045;-83
2022/03/09 06:44:57;;;;;;;21.73;10.13;;;0.60;99.90;;;;;;5017859;28;20060;-83
2022/03/09 06:47:23;;;;;;;18.23;9.68;;;0.60;99.90;;;;;;5017809;28;20041;-83
2022/03/09 06:49:48;;;;;;;16.88;9.35;;;0.70;99.90;;;;;;5017885;28;20048;-83
2022/03/09 06:52:14;;;;;;;19.80;9.52;;;0.80;99.90;;;;;;5017643;28;20046;-83
2022/03/09 06:54:40;;;;;;;16.35;8.48;;;0.80;99.90;;;;;;5018058;28;20033;-83
2022/03/09 06:57:06;;;;;;;17.20;9.73;;;0.90;99.90;;;;;;5017624;28;20137;-86
2022/03/09 06:59:32;;;;;;;21.48;10.00;;;1.00;99.90;;;;;;5017674;28;20124;-86
2022/03/09 07:01:57;;;;;;;17.90;9.75;;;1.00;99.90;;;;;;5017529;28;20041;-86
2022/03/09 07:04:23;;;;;;;20.77;10.13;;;1.10;99.90;;;;;;5017915;28;20045;-86
2022/03/09 07:06:49;;;;;;;20.33;10.30;;;1.20;99.90;;;;;;5017739;28;20515;-85
2022/03/09 07:09:14;;;;;;;17.45;9.85;;;1.20;99.90;;;;;;5017495;28;20497;-85
2022/03/09 07:11:44;;;;;;;16.95;9.68;;;1.30;99.90;;;;;;5016658;28;20052;-85
2022/03/09 07:14:11;;;;;;;20.00;10.50;;;1.40;99.90;;;;;;5017457;28;20132;-85
2022/03/09 07:16:37;;;;;;;20.33;10.68;;;1.50;99.90;;;;;;5017195;28;20050;-84
2022/03/09 07:19:02;;;;;;;16.95;9.05;;;1.60;99.90;;;;;;5017458;28;20049;-85
2022/03/09 07:21:28;;;;;;;16.23;8.60;;;1.60;99.90;;;;;;5017182;28;20046;-84
2022/03/09 07:23:54;;;;;;;21.77;10.02;;;1.70;99.90;;;;;;5017265;28;20042;-80
2022/03/09 07:26:19;;;;;;;19.05;9.85;;;1.80;99.90;;;;;;5017332;28;20041;-79
2022/03/09 07:28:45;;;;;;;15.68;8.35;;;1.90;99.90;;;;;;5016948;28;20401;-79
2022/03/09 07:31:10;;;;;;;20.27;10.05;;;2.00;99.90;;;;;;5017301;28;20486;-79
2022/03/09 07:33:36;;;;;;;16.55;9.20;;;2.10;99.90;;;;;;5017043;28;20076;-79
2022/03/09 07:36:02;;;;;;;19.25;9.73;;;2.20;99.90;;;;;;5017023;28;20061;-79
2022/03/09 07:38:28;;;;;;;18.75;9.60;;;2.30;99.90;;;;;;5017271;28;20174;-80
2022/03/09 07:40:54;;;;;;;16.35;9.75;;;2.40;99.90;;;;;;5017193;28;20132;-79
2022/03/09 07:43:20;;;;;;;15.70;9.05;;;2.40;99.90;;;;;;5017094;28;20049;-79
2022/03/09 07:45:47;;;;;;;17.17;9.05;;;2.50;99.90;;;;;;5016947;28;20560;-79
2022/03/09 07:48:12;;;;;;;17.60;8.98;;;2.70;99.90;;;;;;5017004;28;20515;-79
2022/03/09 07:50:38;;;;;;;19.30;9.70;;;2.70;99.90;;;;;;5014862;28;20046;-78
2022/03/09 07:53:05;;;;;;;16.75;9.77;;;2.80;99.90;;;;;;4988316;28;20046;-80
2022/03/09 07:55:30;;;;;;;17.35;9.20;;;2.90;99.90;;;;;;4977159;28;20038;-79
2022/03/09 07:57:56;;;;;;;18.58;9.25;;;3.00;99.90;;;;;;4977504;28;20042;-79
2022/03/09 08:00:22;;;;;;;17.10;8.90;;;3.20;99.90;;;;;;4977517;28;20390;-79
2022/03/09 08:02:48;;;;;;;21.30;9.98;;;3.30;99.90;;;;;;4977233;28;20046;-78
2022/03/09 08:05:15;;;;;;;18.08;8.82;;;3.40;99.90;;;;;;4977414;28;20399;-78
2022/03/09 08:07:41;;;;;;;15.00;8.82;;;3.50;99.90;;;;;;4994824;28;20042;-79
2022/03/09 08:10:09;;;;;;;17.90;9.30;;;3.60;99.90;;;;;;4977321;28;20078;-79
2022/03/09 08:12:34;;;;;;;16.48;8.93;;;3.70;99.90;;;;;;4977087;28;20054;-79
2022/03/09 08:15:00;;;;;;;15.73;9.05;;;3.90;99.90;;;;;;4977112;28;20042;-80
2022/03/09 08:17:26;;;;;;;16.63;9.35;;;4.00;99.90;;;;;;4976836;28;20486;-82
2022/03/09 08:19:52;;;;;;;15.75;9.20;;;4.10;99.90;;;;;;4976933;28;20045;-80
2022/03/09 08:22:19;;;;;;;15.52;8.57;;;4.20;99.90;;;;;;4994310;28;20054;-88
2022/03/09 08:24:44;;;;;;;19.70;10.02;;;4.30;99.90;;;;;;4976792;28;20102;-79
2022/03/09 08:27:10;;;;;;;19.33;9.95;;;4.40;99.90;;;;;;4994270;28;20181;-80
2022/03/09 08:29:36;;;;;;;16.27;9.52;;;4.50;99.90;;;;;;4994302;28;20061;-79
2022/03/09 08:32:01;;;;;;;24.42;12.32;;;4.50;99.90;;;;;;4994298;28;20046;-80
2022/03/09 08:34:27;;;;;;;22.95;12.35;;;4.60;99.90;;;;;;4976947;28;20090;-79
2022/03/09 08:36:53;;;;;;;18.63;10.80;;;4.70;99.90;;;;;;4976565;28;20077;-79
2022/03/09 08:39:18;;;;;;;16.48;9.00;;;4.80;99.90;;;;;;4976573;28;20188;-79
2022/03/09 08:41:44;;;;;;;18.13;9.68;;;5.00;99.90;;;;;;4994082;28;20035;-80
2022/03/09 08:44:10;;;;;;;22.85;10.15;;;5.10;99.90;;;;;;4976711;28;20050;-80
2022/03/09 08:46:35;;;;;;;18.80;10.25;;;5.30;99.90;;;;;;4976492;28;20042;-80
2022/03/09 08:49:01;;;;;;;20.33;10.05;;;5.40;99.90;;;;;;4976416;28;20129;-80
2022/03/09 08:51:27;;;;;;;20.00;10.57;;;5.50;99.90;;;;;;4976639;28;20153;-79
2022/03/09 08:53:52;;;;;;;18.50;10.55;;;5.60;99.90;;;;;;4976378;28;20548;-80
2022/03/09 08:56:18;;;;;;;24.80;10.98;;;5.80;99.90;;;;;;4976764;28;20136;-80
2022/03/09 08:58:44;;;;;;;20.40;10.07;;;5.90;99.90;;;;;;4976650;28;20162;-81
2022/03/09 09:01:10;;;;;;;19.10;9.90;;;6.10;99.90;;;;;;4976649;28;20429;-80
2022/03/09 09:03:36;;;;;;;17.80;10.32;;;6.20;99.90;;;;;;4976345;28;20604;-81
2022/03/09 09:06:02;;;;;;;17.25;9.82;;;6.20;99.90;;;;;;4976317;28;20532;-80
2022/03/09 09:08:27;;;;;;;22.70;11.90;;;6.20;99.90;;;;;;4990318;28;20133;-80
2022/03/09 09:10:53;;;;;;;21.48;10.45;;;6.10;99.90;;;;;;4995908;28;20049;-80
2022/03/09 09:13:19;;;;;;;20.90;10.30;;;6.20;99.90;;;;;;4995160;28;20453;-81
2022/03/09 09:15:45;;;;;;;27.65;12.00;;;6.30;99.90;;;;;;4995606;28;20084;-80
2022/03/09 09:18:11;;;;;;;23.27;10.02;;;6.50;99.90;;;;;;4995207;28;20069;-80
2022/03/09 09:20:37;;;;;;;21.63;10.90;;;6.60;99.90;;;;;;4995643;28;20049;-80
2022/03/09 09:23:03;;;;;;;20.90;10.43;;;6.80;99.90;;;;;;4995773;28;20052;-81
2022/03/09 09:25:29;;;;;;;21.73;10.77;;;6.80;99.90;;;;;;4995302;28;20094;-81
2022/03/09 09:27:56;;;;;;;18.65;10.98;;;6.90;99.90;;;;;;4995420;28;20410;-81
2022/03/09 09:30:23;;;;;;;22.67;10.57;;;7.10;99.90;;;;;;4995079;28;20508;-81
2022/03/09 09:32:49;;;;;;;18.80;11.18;;;7.20;99.90;;;;;;5012971;28;20129;-81
2022/03/09 09:35:16;;;;;;;21.77;10.77;;;7.30;99.90;;;;;;4997667;28;20137;-80
2022/03/09 09:37:43;;;;;;;19.80;10.75;;;7.40;99.90;;;;;;4998482;28;20042;-80
2022/03/09 09:40:11;;;;;;;21.85;10.90;;;7.60;99.90;;;;;;4999341;28;20049;-81
2022/03/09 09:42:37;;;;;;;20.65;11.43;;;7.80;99.90;;;;;;4999024;28;20046;-80
2022/03/09 09:45:05;;;;;;;18.23;10.75;;;7.90;99.90;;;;;;4999185;28;20046;-80
2022/03/09 09:47:32;;;;;;;19.67;10.32;;;8.10;99.90;;;;;;4999430;28;20050;-82
2022/03/09 09:49:58;;;;;;;24.00;11.82;;;8.20;98.40;;;;;;4999331;28;20050;-82
2022/03/09 09:52:33;;;;;;;19.83;10.70;;;8.30;98.40;;;;;;4998559;28;20115;-82
2022/03/09 09:55:02;;;;;;;17.48;10.27;;;8.30;94.80;;;;;;4999174;28;20053;-82
2022/03/09 09:57:29;;;;;;;21.52;10.75;;;8.40;96.00;;;;;;4998447;28;20382;-82
2022/03/09 09:59:56;;;;;;;18.92;11.05;;;8.50;97.50;;;;;;4999310;28;20041;-84
2022/03/09 10:02:21;;;;;;;23.33;12.20;;;8.60;94.80;;;;;;4999320;28;20049;-81
2022/03/09 10:04:50;;;;;;;22.70;10.77;;;8.60;93.00;;;;;;5016159;28;20532;-80
2022/03/09 10:07:16;;;;;;;20.42;10.05;;;8.70;91.90;;;;;;4998450;28;20060;-80
2022/03/09 10:09:42;;;;;;;18.77;11.07;;;8.80;95.80;;;;;;4998681;28;20096;-81
2022/03/09 10:12:10;;;;;;;19.42;11.30;;;9.00;94.30;;;;;;4998555;28;20135;-81
2022/03/09 10:14:50;;;;;;;21.75;10.90;;;9.10;92.80;;;;;;4998047;28;20597;-81
2022/03/09 10:17:21;;;;;;;21.13;11.82;;;9.20;90.50;;;;;;4998075;28;20087;-81
2022/03/09 10:20:07;;;;;;;24.42;11.93;;;9.20;89.60;;;;;;4997786;28;20111;-81
2022/03/09 10:22:41;;;;;;;20.77;10.77;;;9.30;90.90;;;;;;4998151;28;20080;-81
2022/03/09 10:25:09;;;;;;;26.77;11.80;;;9.50;93.80;;;;;;5015811;28;20180;-80
2022/03/09 10:27:40;;;;;;;23.33;11.05;;;9.60;89.40;;;;;;4997889;28;20057;-81
2022/03/09 10:30:17;;;;;;;23.88;11.80;;;9.60;89.50;;;;;;4997971;28;20061;-81
2022/03/09 10:32:59;;;;;;;21.13;10.77;;;9.80;88.60;;;;;;4996412;28;20081;-81
2022/03/09 10:35:31;;;;;;;23.38;11.90;;;9.80;82.00;;;;;;4988701;28;20042;-80
2022/03/09 10:37:58;;;;;;;20.95;11.65;;;9.80;84.90;;;;;;5015737;28;20054;-80
2022/03/09 10:40:25;;;;;;;24.50;13.27;;;10.00;85.00;;;;;;4996537;28;20042;-80
2022/03/09 10:42:51;;;;;;;19.90;10.93;;;10.10;79.10;;;;;;4998144;28;20053;-80
2022/03/09 10:45:18;;;;;;;19.85;11.07;;;10.20;85.10;;;;;;4998119;28;20120;-80
2022/03/09 10:47:48;;;;;;;26.42;11.40;;;10.20;82.00;;;;;;4998193;28;20042;-80
2022/03/09 10:50:20;;;;;;;23.70;11.52;;;10.30;80.10;;;;;;4998088;28;20045;-80
2022/03/09 10:52:55;;;;;;;19.83;11.65;;;10.40;80.30;;;;;;4997655;28;20073;-81
2022/03/09 10:55:29;;;;;;;21.33;12.70;;;10.40;78.30;;;;;;4997972;28;20477;-80
2022/03/09 10:58:20;;;;;;;21.92;10.23;;;10.60;80.90;;;;;;4998271;28;20100;-79
2022/03/09 11:00:56;;;;;;;24.45;11.82;;;10.80;82.70;;;;;;4998095;28;20060;-79
2022/03/09 11:03:24;;;;;;;19.88;11.80;;;10.80;75.90;;;;;;4998128;28;20108;-80
2022/03/09 11:05:59;;;;;;;25.23;11.75;;;10.90;80.60;;;;;;4997791;28;20489;-80
2022/03/09 11:08:27;;;;;;;22.13;11.13;;;11.00;74.00;;;;;;4998166;28;20049;-80
2022/03/09 11:10:55;;;;;;;20.95;11.57;;;11.10;77.40;;;;;;4998089;28;20046;-80
2022/03/09 11:13:22;;;;;;;23.38;12.65;;;11.10;78.30;;;;;;4997342;28;20050;-80
2022/03/09 11:15:48;;;;;;;21.85;11.35;;;11.20;74.80;;;;;;4997507;28;20049;-79
2022/03/09 11:18:21;;;;;;;21.48;10.43;;;11.20;79.50;;;;;;4997965;28;20501;-79
2022/03/09 11:20:48;;;;;;;;;;;11.00;70.90;;;;;;4997683;28;20050;-80
2022/03/09 11:23:14;;;;;;;23.80;11.10;;;11.20;78.10;;;;;;4997974;28;19921;-79
2022/03/09 11:25:53;;;;;;;25.70;12.35;;;11.30;75.00;;;;;;4997278;28;20037;-79
2022/03/09 11:28:25;;;;;;;22.90;11.70;;;11.30;71.80;;;;;;4997024;28;20050;-80
2022/03/09 11:31:04;;;;;;;26.15;12.88;;;11.20;72.30;;;;;;4996864;28;20073;-80
2022/03/09 11:33:41;;;;;;;23.88;11.60;;;11.30;68.90;;;;;;4997362;28;20045;-80
2022/03/09 11:36:22;;;;;;;22.65;12.75;;;11.40;69.00;;;;;;4996461;28;20061;-80
2022/03/09 11:39:10;;;;;;;25.35;11.85;;;11.40;68.60;;;;;;4997013;28;20114;-80
2022/03/09 11:41:37;;;;;;;22.52;12.05;;;11.50;73.30;;;;;;4997149;28;20074;-80
2022/03/09 11:44:21;;;;;;;24.65;12.07;;;11.60;67.40;;;;;;5014476;28;20092;-79
2022/03/09 11:47:03;;;;;;;24.92;12.68;;;11.70;68.80;;;;;;5014535;28;20061;-80
2022/03/09 11:49:49;;;;;;;21.38;12.60;;;11.60;69.10;;;;;;4997087;28;20054;-81
2022/03/09 11:52:18;;;;;;;20.20;11.65;;;11.70;66.40;;;;;;4997143;28;20076;-80
2022/03/09 11:54:46;;;;;;;21.52;11.55;;;11.70;66.90;;;;;;4997136;28;20053;-80
2022/03/09 11:57:14;;;;;;;20.33;11.30;;;11.70;65.70;;;;;;4995986;28;20060;-81
2022/03/09 12:00:00;;;;;;;23.52;11.93;;;11.80;71.50;;;;;;4996996;28;20046;-80
2022/03/09 12:02:40;;;;;;;19.85;11.32;;;11.90;69.00;;;;;;4996670;28;20125;-81
2022/03/09 12:05:08;;;;;;;22.50;13.48;;;11.90;70.00;;;;;;4996783;28;20081;-79
2022/03/09 12:07:34;;;;;;;21.73;11.80;;;11.80;63.90;;;;;;4996941;28;20057;-79
2022/03/09 12:10:45;;;;;;;22.38;12.73;;;11.80;66.20;;;;;;4996429;28;20516;-80
2022/03/09 12:13:23;;;;;;;24.52;12.50;;;12.00;66.60;;;;;;4976764;28;20414;-80
2022/03/09 12:16:26;;;;;;;24.38;12.93;;;12.00;68.90;;;;;;4996319;28;20046;-79
2022/03/09 12:19:00;;;;;;;21.73;13.30;;;12.20;68.60;;;;;;4996611;28;20486;-79
2022/03/09 12:21:26;;;;;;;22.45;11.88;;;12.20;66.10;;;;;;4996495;28;20081;-80
2022/03/09 12:24:04;;;;;;;22.63;13.80;;;12.30;64.30;;;;;;4996270;28;20088;-80
2022/03/09 12:26:40;;;;;;;20.63;12.05;;;12.10;61.60;;;;;;4996099;28;20129;-82
2022/03/09 12:29:21;;;;;;;20.00;12.25;;;12.10;60.80;;;;;;4996468;28;20060;-81
2022/03/09 12:32:02;;;;;;;19.48;12.13;;;12.10;62.80;;;;;;4996107;28;20050;-81
2022/03/09 12:34:37;;;;;;;23.80;13.10;;;12.20;61.60;;;;;;4995520;28;20123;-80
2022/03/09 12:37:14;;;;;;;22.85;11.65;;;12.20;60.20;;;;;;4995906;28;20060;-80
2022/03/09 12:39:51;;;;;;;21.17;12.15;;;12.30;61.40;;;;;;4996099;28;20509;-80
2022/03/09 12:42:18;;;;;;;21.00;12.43;;;12.40;63.40;;;;;;4995909;28;20068;-79
2022/03/09 12:44:44;;;;;;;21.85;12.55;;;12.40;61.50;;;;;;4996034;28;20060;-79